sensor_id;sensor_type;location;lat;lon;timestamp;temperature;humidity
18207;DHT22;9229;52.354;20.886;2023-11-21T00:01:15;-0.10;99.90
18207;DHT22;9229;52.354;20.886;2023-11-21T00:06:19;-0.10;99.90
18207;DHT22;9229;52.354;20.886;2023-11-21T00:11:21;-0.10;99.90
18207;DHT22;9229;52.354;20.886;2023-11-21T00:16:23;-0.10;99.90
18207;DHT22;9229;52.354;20.886;2023-11-21T00:21:27;-0.10;99.90
18207;DHT22;9229;52.354;20.886;2023-11-21T00:26:29;0.00;99.90
18207;DHT22;9229;52.354;20.886;2023-11-21T00:31:36;0.00;99.90
18207;DHT22;9229;52.354;20.886;2023-11-21T00:36:41;0.00;99.90
18207;DHT22;9229;52.354;20.886;2023-11-21T00:41:43;0.00;99.90
18207;DHT22;9229;52.354;20.886;2023-11-21T00:46:45;-0.10;99.90
18207;DHT22;9229;52.354;20.886;2023-11-21T00:51:49;-0.10;99.90
18207;DHT22;9229;52.354;20.886;2023-11-21T00:56:51;-0.10;99.90
18207;DHT22;9229;52.354;20.886;2023-11-21T01:01:53;-0.20;99.90
18207;DHT22;9229;52.354;20.886;2023-11-21T01:06:56;-0.20;99.90
18207;DHT22;9229;52.354;20.886;2023-11-21T01:11:59;-0.30;99.90
18207;DHT22;9229;52.354;20.886;2023-11-21T01:17:01;-0.30;99.90
18207;DHT22;9229;52.354;20.886;2023-11-21T01:22:06;-0.30;99.90
18207;DHT22;9229;52.354;20.886;2023-11-21T01:27:09;-0.30;99.90
18207;DHT22;9229;52.354;20.886;2023-11-21T01:32:11;-0.30;99.90
18207;DHT22;9229;52.354;20.886;2023-11-21T01:37:14;-0.30;99.90
18207;DHT22;9229;52.354;20.886;2023-11-21T01:42:18;-0.40;99.90
18207;DHT22;9229;52.354;20.886;2023-11-21T01:47:20;-0.40;99.90
18207;DHT22;9229;52.354;20.886;2023-11-21T01:52:23;-0.40;99.90
18207;DHT22;9229;52.354;20.886;2023-11-21T01:57:26;-0.40;99.90
18207;DHT22;9229;52.354;20.886;2023-11-21T02:02:28;-0.40;99.90
18207;DHT22;9229;52.354;20.886;2023-11-21T02:07:31;-0.40;99.90
18207;DHT22;9229;52.354;20.886;2023-11-21T02:12:33;-0.40;99.90
18207;DHT22;9229;52.354;20.886;2023-11-21T02:17:35;-0.50;99.90
18207;DHT22;9229;52.354;20.886;2023-11-21T02:22:41;-0.50;99.90
18207;DHT22;9229;52.354;20.886;2023-11-21T02:27:45;-0.40;99.90
18207;DHT22;9229;52.354;20.886;2023-11-21T02:32:48;-0.40;99.90
18207;DHT22;9229;52.354;20.886;2023-11-21T02:37:53;-0.40;99.90
18207;DHT22;9229;52.354;20.886;2023-11-21T02:42:57;-0.40;99.90
18207;DHT22;9229;52.354;20.886;2023-11-21T02:47:59;-0.50;99.90
18207;DHT22;9229;52.354;20.886;2023-11-21T02:53:01;-0.50;99.90
18207;DHT22;9229;52.354;20.886;2023-11-21T02:58:05;-0.50;99.90
18207;DHT22;9229;52.354;20.886;2023-11-21T03:03:06;-0.50;99.90
18207;DHT22;9229;52.354;20.886;2023-11-21T03:08:08;-0.50;99.90
18207;DHT22;9229;52.354;20.886;2023-11-21T03:13:12;-0.50;99.90
18207;DHT22;9229;52.354;20.886;2023-11-21T03:18:14;-0.50;99.90
18207;DHT22;9229;52.354;20.886;2023-11-21T03:23:16;-0.50;99.90
18207;DHT22;9229;52.354;20.886;2023-11-21T03:28:19;-0.60;99.90
18207;DHT22;9229;52.354;20.886;2023-11-21T03:33:21;-0.60;99.90
18207;DHT22;9229;52.354;20.886;2023-11-21T03:38:23;-0.50;99.90
18207;DHT22;9229;52.354;20.886;2023-11-21T03:43:27;-0.50;99.90
18207;DHT22;9229;52.354;20.886;2023-11-21T03:48:28;-0.60;99.90
18207;DHT22;9229;52.354;20.886;2023-11-21T03:53:30;-0.60;99.90
18207;DHT22;9229;52.354;20.886;2023-11-21T03:58:34;-0.60;99.90
18207;DHT22;9229;52.354;20.886;2023-11-21T04:03:36;-0.60;99.90
18207;DHT22;9229;52.354;20.886;2023-11-21T04:08:37;-0.60;99.90
18207;DHT22;9229;52.354;20.886;2023-11-21T04:13:41;-0.60;99.90
18207;DHT22;9229;52.354;20.886;2023-11-21T04:18:44;-0.70;99.90
18207;DHT22;9229;52.354;20.886;2023-11-21T04:23:45;-0.70;99.90
18207;DHT22;9229;52.354;20.886;2023-11-21T04:28:49;-0.60;99.90
18207;DHT22;9229;52.354;20.886;2023-11-21T04:33:51;-0.60;99.90
18207;DHT22;9229;52.354;20.886;2023-11-21T04:38:53;-0.70;99.90
18207;DHT22;9229;52.354;20.886;2023-11-21T04:43:57;-0.70;99.90
18207;DHT22;9229;52.354;20.886;2023-11-21T04:49:01;-0.70;99.90
18207;DHT22;9229;52.354;20.886;2023-11-21T04:54:03;-0.80;99.90
18207;DHT22;9229;52.354;20.886;2023-11-21T04:59:07;-0.80;99.90
18207;DHT22;9229;52.354;20.886;2023-11-21T05:04:10;-0.70;99.90
18207;DHT22;9229;52.354;20.886;2023-11-21T05:09:11;-0.70;99.90
18207;DHT22;9229;52.354;20.886;2023-11-21T05:14:15;-0.70;99.90
18207;DHT22;9229;52.354;20.886;2023-11-21T05:19:17;-0.80;99.90
18207;DHT22;9229;52.354;20.886;2023-11-21T05:24:19;-0.80;99.90
18207;DHT22;9229;52.354;20.886;2023-11-21T05:29:22;-0.80;99.90
18207;DHT22;9229;52.354;20.886;2023-11-21T05:34:26;-0.80;99.90
18207;DHT22;9229;52.354;20.886;2023-11-21T05:39:28;-0.80;99.90
18207;DHT22;9229;52.354;20.886;2023-11-21T05:44:31;-0.90;99.90
18207;DHT22;9229;52.354;20.886;2023-11-21T05:49:33;-0.90;99.90
18207;DHT22;9229;52.354;20.886;2023-11-21T05:54:35;-0.90;99.90
18207;DHT22;9229;52.354;20.886;2023-11-21T05:59:39;-0.80;99.90
18207;DHT22;9229;52.354;20.886;2023-11-21T06:04:41;-0.80;99.90
18207;DHT22;9229;52.354;20.886;2023-11-21T06:09:43;-0.90;99.90
18207;DHT22;9229;52.354;20.886;2023-11-21T06:14:46;-0.90;99.90
18207;DHT22;9229;52.354;20.886;2023-11-21T06:19:49;-0.90;99.90
18207;DHT22;9229;52.354;20.886;2023-11-21T06:24:51;-0.90;99.90
18207;DHT22;9229;52.354;20.886;2023-11-21T06:29:54;-0.90;99.90
18207;DHT22;9229;52.354;20.886;2023-11-21T06:34:57;-0.90;99.90
18207;DHT22;9229;52.354;20.886;2023-11-21T06:40:00;-0.90;99.90
18207;DHT22;9229;52.354;20.886;2023-11-21T06:45:07;-0.80;99.90
18207;DHT22;9229;52.354;20.886;2023-11-21T06:50:11;-0.80;99.90
18207;DHT22;9229;52.354;20.886;2023-11-21T06:55:13;-0.80;99.90
18207;DHT22;9229;52.354;20.886;2023-11-21T07:00:18;-0.80;99.90
18207;DHT22;9229;52.354;20.886;2023-11-21T07:05:20;-0.70;99.90
18207;DHT22;9229;52.354;20.886;2023-11-21T07:10:23;-0.70;99.90
18207;DHT22;9229;52.354;20.886;2023-11-21T07:15:26;-0.70;99.90
18207;DHT22;9229;52.354;20.886;2023-11-21T07:20:28;-0.70;99.90
18207;DHT22;9229;52.354;20.886;2023-11-21T07:25:31;-0.70;99.90
18207;DHT22;9229;52.354;20.886;2023-11-21T07:30:39;-0.70;99.90
18207;DHT22;9229;52.354;20.886;2023-11-21T07:35:41;-0.70;99.90
18207;DHT22;9229;52.354;20.886;2023-11-21T07:40:43;-0.60;99.90
18207;DHT22;9229;52.354;20.886;2023-11-21T07:45:47;-0.50;99.90
18207;DHT22;9229;52.354;20.886;2023-11-21T07:50:51;-0.50;99.90
18207;DHT22;9229;52.354;20.886;2023-11-21T07:55:53;-0.50;99.90
18207;DHT22;9229;52.354;20.886;2023-11-21T08:00:57;-0.50;99.90
18207;DHT22;9229;52.354;20.886;2023-11-21T08:05:59;-0.50;99.90
18207;DHT22;9229;52.354;20.886;2023-11-21T08:11:04;-0.40;99.90
18207;DHT22;9229;52.354;20.886;2023-11-21T08:16:10;-0.40;99.90
18207;DHT22;9229;52.354;20.886;2023-11-21T08:21:13;-0.30;99.90
18207;DHT22;9229;52.354;20.886;2023-11-21T08:26:16;-0.30;99.90
18207;DHT22;9229;52.354;20.886;2023-11-21T08:31:25;-0.30;99.90
18207;DHT22;9229;52.354;20.886;2023-11-21T08:36:27;-0.40;99.90
18207;DHT22;9229;52.354;20.886;2023-11-21T08:41:29;-0.40;99.90
18207;DHT22;9229;52.354;20.886;2023-11-21T08:46:33;-0.30;99.90
18207;DHT22;9229;52.354;20.886;2023-11-21T08:51:37;-0.30;99.90
18207;DHT22;9229;52.354;20.886;2023-11-21T08:56:40;-0.20;99.90
18207;DHT22;9229;52.354;20.886;2023-11-21T09:01:43;-0.20;99.90
18207;DHT22;9229;52.354;20.886;2023-11-21T09:06:45;-0.20;99.90
18207;DHT22;9229;52.354;20.886;2023-11-21T09:11:47;-0.20;99.90
18207;DHT22;9229;52.354;20.886;2023-11-21T09:16:51;-0.20;99.90
18207;DHT22;9229;52.354;20.886;2023-11-21T09:21:53;-0.20;99.90
18207;DHT22;9229;52.354;20.886;2023-11-21T09:26:57;-0.10;99.90
18207;DHT22;9229;52.354;20.886;2023-11-21T09:32:02;-0.10;99.90
18207;DHT22;9229;52.354;20.886;2023-11-21T09:37:04;-0.10;99.90
18207;DHT22;9229;52.354;20.886;2023-11-21T09:42:11;-0.10;99.90
18207;DHT22;9229;52.354;20.886;2023-11-21T09:47:17;0.00;99.90
18207;DHT22;9229;52.354;20.886;2023-11-21T09:52:26;0.00;99.90
18207;DHT22;9229;52.354;20.886;2023-11-21T09:57:28;0.00;99.90
18207;DHT22;9229;52.354;20.886;2023-11-21T10:02:33;0.00;99.90
18207;DHT22;9229;52.354;20.886;2023-11-21T10:07:39;-0.10;99.90
18207;DHT22;9229;52.354;20.886;2023-11-21T10:12:44;-0.10;99.90
18207;DHT22;9229;52.354;20.886;2023-11-21T10:17:55;-0.10;99.90
18207;DHT22;9229;52.354;20.886;2023-11-21T10:22:57;-0.10;99.90
18207;DHT22;9229;52.354;20.886;2023-11-21T10:27:59;0.00;99.90
18207;DHT22;9229;52.354;20.886;2023-11-21T10:33:04;0.00;99.90
18207;DHT22;9229;52.354;20.886;2023-11-21T10:38:06;0.00;99.90
18207;DHT22;9229;52.354;20.886;2023-11-21T10:43:11;0.00;99.90
18207;DHT22;9229;52.354;20.886;2023-11-21T10:48:15;0.00;99.90
18207;DHT22;9229;52.354;20.886;2023-11-21T10:53:17;0.00;99.90
18207;DHT22;9229;52.354;20.886;2023-11-21T10:58:19;0.00;99.90
18207;DHT22;9229;52.354;20.886;2023-11-21T11:03:23;0.00;99.90
18207;DHT22;9229;52.354;20.886;2023-11-21T11:08:26;0.00;99.90
18207;DHT22;9229;52.354;20.886;2023-11-21T11:13:28;0.00;99.90
18207;DHT22;9229;52.354;20.886;2023-11-21T11:18:31;0.00;99.90
18207;DHT22;9229;52.354;20.886;2023-11-21T11:23:46;0.00;99.90
18207;DHT22;9229;52.354;20.886;2023-11-21T11:28:59;0.00;99.90
18207;DHT22;9229;52.354;20.886;2023-11-21T11:34:14;0.00;99.90
18207;DHT22;9229;52.354;20.886;2023-11-21T11:39:27;0.00;99.90
18207;DHT22;9229;52.354;20.886;2023-11-21T11:44:51;0.00;99.90
18207;DHT22;9229;52.354;20.886;2023-11-21T11:49:57;0.00;99.90
18207;DHT22;9229;52.354;20.886;2023-11-21T11:55:00;0.00;99.90
18207;DHT22;9229;52.354;20.886;2023-11-21T12:00:13;0.00;99.90
18207;DHT22;9229;52.354;20.886;2023-11-21T12:05:21;0.10;99.90
18207;DHT22;9229;52.354;20.886;2023-11-21T12:10:24;0.10;99.90
18207;DHT22;9229;52.354;20.886;2023-11-21T12:15:27;0.10;99.90
18207;DHT22;9229;52.354;20.886;2023-11-21T12:20:31;0.10;99.90
18207;DHT22;9229;52.354;20.886;2023-11-21T12:25:39;0.20;99.90
18207;DHT22;9229;52.354;20.886;2023-11-21T12:30:42;0.20;99.90
18207;DHT22;9229;52.354;20.886;2023-11-21T12:35:45;0.20;99.90
18207;DHT22;9229;52.354;20.886;2023-11-21T12:40:47;0.20;99.90
18207;DHT22;9229;52.354;20.886;2023-11-21T12:45:49;0.10;99.90
18207;DHT22;9229;52.354;20.886;2023-11-21T12:50:55;0.10;99.90
18207;DHT22;9229;52.354;20.886;2023-11-21T12:55:57;0.10;99.90
18207;DHT22;9229;52.354;20.886;2023-11-21T13:00:59;0.10;99.90
18207;DHT22;9229;52.354;20.886;2023-11-21T13:06:06;0.10;99.90
18207;DHT22;9229;52.354;20.886;2023-11-21T13:11:11;0.10;99.90
18207;DHT22;9229;52.354;20.886;2023-11-21T13:16:14;0.10;99.90
18207;DHT22;9229;52.354;20.886;2023-11-21T13:21:17;0.10;99.90
18207;DHT22;9229;52.354;20.886;2023-11-21T13:26:19;0.10;99.90
18207;DHT22;9229;52.354;20.886;2023-11-21T13:31:24;0.10;99.90
18207;DHT22;9229;52.354;20.886;2023-11-21T13:36:28;0.10;99.90
18207;DHT22;9229;52.354;20.886;2023-11-21T13:41:34;0.00;99.90
18207;DHT22;9229;52.354;20.886;2023-11-21T13:46:38;0.00;99.90
18207;DHT22;9229;52.354;20.886;2023-11-21T13:51:41;-0.10;99.90
18207;DHT22;9229;52.354;20.886;2023-11-21T13:56:46;-0.10;99.90
18207;DHT22;9229;52.354;20.886;2023-11-21T14:01:50;-0.20;99.90
18207;DHT22;9229;52.354;20.886;2023-11-21T14:06:58;-0.20;99.90
18207;DHT22;9229;52.354;20.886;2023-11-21T14:12:07;-0.20;99.90
18207;DHT22;9229;52.354;20.886;2023-11-21T14:17:13;-0.20;99.90
18207;DHT22;9229;52.354;20.886;2023-11-21T14:22:16;-0.20;99.90
18207;DHT22;9229;52.354;20.886;2023-11-21T14:27:18;-0.20;99.90
18207;DHT22;9229;52.354;20.886;2023-11-21T14:32:21;-0.30;99.90
18207;DHT22;9229;52.354;20.886;2023-11-21T14:37:24;-0.30;99.90
18207;DHT22;9229;52.354;20.886;2023-11-21T14:42:27;-0.30;99.90
18207;DHT22;9229;52.354;20.886;2023-11-21T14:47:30;-0.30;99.90
18207;DHT22;9229;52.354;20.886;2023-11-21T14:52:34;-0.40;99.90
18207;DHT22;9229;52.354;20.886;2023-11-21T14:57:38;-0.40;99.90
18207;DHT22;9229;52.354;20.886;2023-11-21T15:02:41;-0.40;99.90
18207;DHT22;9229;52.354;20.886;2023-11-21T15:07:53;-0.40;99.90
18207;DHT22;9229;52.354;20.886;2023-11-21T15:12:57;-0.40;99.90
18207;DHT22;9229;52.354;20.886;2023-11-21T15:17:59;-0.40;99.90
18207;DHT22;9229;52.354;20.886;2023-11-21T15:23:02;-0.30;99.90
18207;DHT22;9229;52.354;20.886;2023-11-21T15:28:06;-0.40;99.90
18207;DHT22;9229;52.354;20.886;2023-11-21T15:33:08;-0.30;99.90
18207;DHT22;9229;52.354;20.886;2023-11-21T15:38:11;-0.30;99.90
18207;DHT22;9229;52.354;20.886;2023-11-21T15:43:14;-0.30;99.90
18207;DHT22;9229;52.354;20.886;2023-11-21T15:48:16;-0.30;99.90
18207;DHT22;9229;52.354;20.886;2023-11-21T15:53:19;-0.30;99.90
18207;DHT22;9229;52.354;20.886;2023-11-21T15:58:22;-0.30;99.90
18207;DHT22;9229;52.354;20.886;2023-11-21T16:03:25;-0.30;99.90
18207;DHT22;9229;52.354;20.886;2023-11-21T16:08:28;-0.30;99.90
18207;DHT22;9229;52.354;20.886;2023-11-21T16:13:30;-0.30;99.90
18207;DHT22;9229;52.354;20.886;2023-11-21T16:18:32;-0.40;99.90
18207;DHT22;9229;52.354;20.886;2023-11-21T16:23:36;-0.40;99.90
18207;DHT22;9229;52.354;20.886;2023-11-21T16:28:38;-0.50;99.90
18207;DHT22;9229;52.354;20.886;2023-11-21T16:33:42;-0.50;99.90
18207;DHT22;9229;52.354;20.886;2023-11-21T16:38:45;-0.50;99.90
18207;DHT22;9229;52.354;20.886;2023-11-21T16:43:47;-0.50;99.90
18207;DHT22;9229;52.354;20.886;2023-11-21T16:48:49;-0.50;99.90
18207;DHT22;9229;52.354;20.886;2023-11-21T16:53:53;-0.50;99.90
18207;DHT22;9229;52.354;20.886;2023-11-21T16:58:55;-0.50;99.90
18207;DHT22;9229;52.354;20.886;2023-11-21T17:03:57;-0.60;99.90
18207;DHT22;9229;52.354;20.886;2023-11-21T17:09:01;-0.60;99.90
18207;DHT22;9229;52.354;20.886;2023-11-21T17:14:10;-0.60;99.90
18207;DHT22;9229;52.354;20.886;2023-11-21T17:19:12;-0.60;99.90
18207;DHT22;9229;52.354;20.886;2023-11-21T17:24:15;-0.60;99.90
18207;DHT22;9229;52.354;20.886;2023-11-21T17:29:17;-0.60;99.90
18207;DHT22;9229;52.354;20.886;2023-11-21T17:34:19;-0.60;99.90
18207;DHT22;9229;52.354;20.886;2023-11-21T17:39:22;-0.70;99.90
18207;DHT22;9229;52.354;20.886;2023-11-21T17:44:24;-0.60;99.90
18207;DHT22;9229;52.354;20.886;2023-11-21T17:49:26;-0.70;99.90
18207;DHT22;9229;52.354;20.886;2023-11-21T17:54:29;-0.50;99.90
18207;DHT22;9229;52.354;20.886;2023-11-21T17:59:32;-0.60;99.90
18207;DHT22;9229;52.354;20.886;2023-11-21T18:04:34;-0.70;99.90
18207;DHT22;9229;52.354;20.886;2023-11-21T18:09:40;-0.70;99.90
18207;DHT22;9229;52.354;20.886;2023-11-21T18:14:44;-0.70;99.90
18207;DHT22;9229;52.354;20.886;2023-11-21T18:19:50;-0.70;99.90
18207;DHT22;9229;52.354;20.886;2023-11-21T18:24:57;-0.70;99.90
18207;DHT22;9229;52.354;20.886;2023-11-21T18:29:59;-0.70;99.90
18207;DHT22;9229;52.354;20.886;2023-11-21T18:35:01;-0.70;99.90
18207;DHT22;9229;52.354;20.886;2023-11-21T18:40:10;-0.70;99.90
18207;DHT22;9229;52.354;20.886;2023-11-21T18:45:13;-0.70;99.90
18207;DHT22;9229;52.354;20.886;2023-11-21T18:50:15;-0.70;99.90
18207;DHT22;9229;52.354;20.886;2023-11-21T18:55:19;-0.80;99.90
18207;DHT22;9229;52.354;20.886;2023-11-21T19:00:21;-0.80;99.90
18207;DHT22;9229;52.354;20.886;2023-11-21T19:05:23;-0.80;99.90
18207;DHT22;9229;52.354;20.886;2023-11-21T19:10:29;-0.80;99.90
18207;DHT22;9229;52.354;20.886;2023-11-21T19:15:31;-0.80;99.90
18207;DHT22;9229;52.354;20.886;2023-11-21T19:20:33;-0.80;99.90
18207;DHT22;9229;52.354;20.886;2023-11-21T19:25:36;-0.80;99.90
18207;DHT22;9229;52.354;20.886;2023-11-21T19:30:40;-0.70;99.90
18207;DHT22;9229;52.354;20.886;2023-11-21T19:35:43;-0.80;99.90
18207;DHT22;9229;52.354;20.886;2023-11-21T19:40:47;-0.80;99.90
18207;DHT22;9229;52.354;20.886;2023-11-21T19:45:49;-0.90;99.90
18207;DHT22;9229;52.354;20.886;2023-11-21T19:50:51;-0.90;99.90
18207;DHT22;9229;52.354;20.886;2023-11-21T19:55:57;-0.90;99.90
18207;DHT22;9229;52.354;20.886;2023-11-21T20:01:02;-0.90;99.90
18207;DHT22;9229;52.354;20.886;2023-11-21T20:06:04;-0.90;99.90
18207;DHT22;9229;52.354;20.886;2023-11-21T20:11:19;-0.90;99.90
18207;DHT22;9229;52.354;20.886;2023-11-21T20:16:23;-0.90;99.90
18207;DHT22;9229;52.354;20.886;2023-11-21T20:21:26;-0.90;99.90
18207;DHT22;9229;52.354;20.886;2023-11-21T20:26:30;-0.90;99.90
18207;DHT22;9229;52.354;20.886;2023-11-21T20:31:45;-0.90;99.90
18207;DHT22;9229;52.354;20.886;2023-11-21T20:36:47;-1.00;99.90
18207;DHT22;9229;52.354;20.886;2023-11-21T20:41:55;-1.00;99.90
18207;DHT22;9229;52.354;20.886;2023-11-21T20:46:58;-1.00;99.90
18207;DHT22;9229;52.354;20.886;2023-11-21T20:51:59;-1.00;99.90
18207;DHT22;9229;52.354;20.886;2023-11-21T20:57:03;-1.00;99.90
18207;DHT22;9229;52.354;20.886;2023-11-21T21:02:06;-1.00;99.90
18207;DHT22;9229;52.354;20.886;2023-11-21T21:07:08;-1.00;99.90
18207;DHT22;9229;52.354;20.886;2023-11-21T21:12:12;-1.00;99.90
18207;DHT22;9229;52.354;20.886;2023-11-21T21:17:14;-1.00;99.90
18207;DHT22;9229;52.354;20.886;2023-11-21T21:22:16;-1.00;99.90
18207;DHT22;9229;52.354;20.886;2023-11-21T21:27:19;-1.00;99.90
18207;DHT22;9229;52.354;20.886;2023-11-21T21:32:23;-1.00;99.90
18207;DHT22;9229;52.354;20.886;2023-11-21T21:37:25;-1.00;99.90
18207;DHT22;9229;52.354;20.886;2023-11-21T21:42:29;-1.00;99.90
18207;DHT22;9229;52.354;20.886;2023-11-21T21:47:31;-1.10;99.90
18207;DHT22;9229;52.354;20.886;2023-11-21T21:52:34;-1.10;99.90
18207;DHT22;9229;52.354;20.886;2023-11-21T21:57:37;-1.10;99.90
18207;DHT22;9229;52.354;20.886;2023-11-21T22:02:40;-1.10;99.90
18207;DHT22;9229;52.354;20.886;2023-11-21T22:07:43;-1.10;99.90
18207;DHT22;9229;52.354;20.886;2023-11-21T22:12:47;-1.00;99.90
18207;DHT22;9229;52.354;20.886;2023-11-21T22:17:49;-1.10;99.90
18207;DHT22;9229;52.354;20.886;2023-11-21T22:22:52;-1.10;99.90
18207;DHT22;9229;52.354;20.886;2023-11-21T22:27:55;-1.10;99.90
18207;DHT22;9229;52.354;20.886;2023-11-21T22:32:58;-1.10;99.90
18207;DHT22;9229;52.354;20.886;2023-11-21T22:38:02;-1.10;99.90
18207;DHT22;9229;52.354;20.886;2023-11-21T22:43:06;-1.10;99.90
18207;DHT22;9229;52.354;20.886;2023-11-21T22:48:08;-1.10;99.90
18207;DHT22;9229;52.354;20.886;2023-11-21T22:53:10;-1.10;99.90
18207;DHT22;9229;52.354;20.886;2023-11-21T22:58:13;-1.20;99.90
18207;DHT22;9229;52.354;20.886;2023-11-21T23:03:15;-1.20;99.90
18207;DHT22;9229;52.354;20.886;2023-11-21T23:08:18;-1.20;99.90
18207;DHT22;9229;52.354;20.886;2023-11-21T23:13:22;-1.20;99.90
18207;DHT22;9229;52.354;20.886;2023-11-21T23:18:25;-1.30;99.90
18207;DHT22;9229;52.354;20.886;2023-11-21T23:23:29;-1.30;99.90
18207;DHT22;9229;52.354;20.886;2023-11-21T23:28:33;-1.30;99.90
18207;DHT22;9229;52.354;20.886;2023-11-21T23:33:35;-1.40;99.90
18207;DHT22;9229;52.354;20.886;2023-11-21T23:38:38;-1.40;99.90
18207;DHT22;9229;52.354;20.886;2023-11-21T23:43:44;-1.40;99.90
18207;DHT22;9229;52.354;20.886;2023-11-21T23:48:47;-1.40;99.90
18207;DHT22;9229;52.354;20.886;2023-11-21T23:53:49;-1.50;99.90
18207;DHT22;9229;52.354;20.886;2023-11-21T23:58:54;-1.50;99.90
